Time;durP1;ratioP1;P1;durP2;ratioP2;P2;SDS_P1;SDS_P2;PMS_P1;PMS_P2;Temp;Humidity;BMP_temperature;BMP_pressure;BME280_temperature;BME280_humidity;BME280_pressure;Samples;Min_cycle;Max_cycle;Signal;HPM_P1;HPM_P2
2021/05/08 00:02:07;;;;;;;;;;;10.50;61.90;;;;;;4302398;33;20010;-69
2021/05/08 00:04:33;;;;;;;;;;;10.50;62.10;;;;;;4301815;33;20309;-69
2021/05/08 00:07:00;;;;;;;;;;;10.50;62.10;;;;;;4303046;33;20396;-69
2021/05/08 00:09:27;;;;;;;;;;;10.50;62.10;;;;;;4303016;33;20400;-69
2021/05/08 00:11:55;;;;;;;;;;;10.50;62.10;;;;;;4302669;33;20014;-69
2021/05/08 00:14:26;;;;;;;;;;;10.50;62.00;;;;;;4302902;33;20355;-69
2021/05/08 00:16:53;;;;;;;;;;;10.50;62.00;;;;;;4302628;33;20024;-69
2021/05/08 00:19:21;;;;;;;;;;;10.50;61.90;;;;;;4302594;33;20014;-69
2021/05/08 00:21:48;;;;;;;;;;;10.40;62.00;;;;;;4302215;33;20020;-69
2021/05/08 00:24:14;;;;;;;;;;;10.40;62.00;;;;;;4302640;33;20066;-69
2021/05/08 00:26:41;;;;;;;;;;;10.40;62.10;;;;;;4302476;33;20018;-69
2021/05/08 00:29:08;;;;;;;;;;;10.40;62.00;;;;;;4302540;33;20080;-69
2021/05/08 00:31:34;;;;;;;;;;;10.40;62.00;;;;;;4302459;33;20011;-69
2021/05/08 00:34:02;;;;;;;;;;;10.40;61.90;;;;;;4301447;33;20010;-69
2021/05/08 00:36:28;;;;;;;;;;;10.40;61.90;;;;;;4302572;33;20083;-69
2021/05/08 00:38:55;;;;;;;;;;;10.40;61.80;;;;;;4302291;33;20028;-69
2021/05/08 00:41:24;;;;;;;;;;;10.30;61.80;;;;;;4302557;33;20412;-69
2021/05/08 00:43:55;;;;;;;;;;;10.30;61.90;;;;;;4302196;33;20006;-69
2021/05/08 00:46:22;;;;;;;;;;;10.30;62.00;;;;;;4302148;33;20020;-69
2021/05/08 00:48:50;;;;;;;;;;;10.30;62.10;;;;;;4302129;33;20057;-69
2021/05/08 00:51:18;;;;;;;;;;;10.30;61.90;;;;;;4301145;33;20018;-69
2021/05/08 00:53:45;;;;;;;;;;;10.30;61.90;;;;;;4304831;33;20083;-69
2021/05/08 00:56:12;;;;;;;;;;;10.30;61.80;;;;;;4304978;33;20018;-69
2021/05/08 00:58:39;;;;;;;;;;;10.30;61.90;;;;;;4305339;33;20006;-69
2021/05/08 01:01:05;;;;;;;;;;;10.20;61.90;;;;;;4291795;33;20017;-69
2021/05/08 01:03:32;;;;;;;;;;;10.20;62.20;;;;;;4304761;33;20112;-69
2021/05/08 01:05:59;;;;;;;;;;;10.20;62.00;;;;;;4305103;33;20048;-69
2021/05/08 01:08:25;;;;;;;;;;;10.20;62.00;;;;;;4304958;33;20016;-69
2021/05/08 01:10:52;;;;;;;;;;;10.20;62.20;;;;;;4305493;33;20014;-69
2021/05/08 01:13:19;;;;;;;;;;;10.10;62.00;;;;;;4304899;33;20014;-69
2021/05/08 01:15:46;;;;;;;;;;;10.10;62.10;;;;;;4304888;33;20017;-69
2021/05/08 01:18:13;;;;;;;;;;;10.10;62.30;;;;;;4305006;33;20404;-69
2021/05/08 01:20:40;;;;;;;;;;;10.00;62.30;;;;;;4292175;33;19998;-69
2021/05/08 01:23:07;;;;;;;;;;;10.00;62.50;;;;;;4303630;33;20016;-69
2021/05/08 01:25:34;;;;;;;;;;;9.90;62.60;;;;;;4305232;33;20434;-69
2021/05/08 01:28:01;;;;;;;;;;;9.90;62.70;;;;;;4305170;33;20018;-69
2021/05/08 01:30:29;;;;;;;;;;;9.80;62.80;;;;;;4304584;33;20205;-69
2021/05/08 01:32:55;;;;;;;;;;;9.80;62.60;;;;;;4304812;33;20447;-69
2021/05/08 01:35:23;;;;;;;;;;;9.80;62.50;;;;;;4305138;33;20014;-69
2021/05/08 01:37:50;;;;;;;;;;;9.80;62.40;;;;;;4303497;33;20420;-69
2021/05/08 01:40:17;;;;;;;;;;;9.90;62.60;;;;;;4304849;33;20028;-69
2021/05/08 01:42:45;;;;;;;;;;;9.90;62.60;;;;;;4303528;33;20352;-69
2021/05/08 01:45:15;;;;;;;;;;;9.80;62.60;;;;;;4304660;33;20017;-69
2021/05/08 01:47:45;;;;;;;;;;;9.80;62.80;;;;;;4304592;33;20021;-69
2021/05/08 01:50:13;;;;;;;;;;;9.80;62.90;;;;;;4304397;33;20010;-69
2021/05/08 01:52:40;;;;;;;;;;;9.80;62.80;;;;;;4303326;33;20408;-69
2021/05/08 01:55:11;;;;;;;;;;;9.80;62.80;;;;;;4304378;33;20020;-69
2021/05/08 01:57:42;;;;;;;;;;;9.80;62.70;;;;;;4291348;33;20025;-69
2021/05/08 02:00:16;;;;;;;;;;;9.80;62.60;;;;;;4303940;33;20020;-69
2021/05/08 02:02:44;;;;;;;;;;;9.80;62.80;;;;;;4304011;33;20408;-69
2021/05/08 02:05:10;;;;;;;;;;;9.80;62.80;;;;;;4304368;33;20017;-69
2021/05/08 02:07:37;;;;;;;;;;;9.70;62.90;;;;;;4304547;33;20005;-69
2021/05/08 02:10:05;;;;;;;;;;;9.70;62.80;;;;;;4303330;33;20020;-69
2021/05/08 02:12:32;;;;;;;;;;;9.70;62.80;;;;;;4291230;33;20597;-69
2021/05/08 02:14:59;;;;;;;;;;;9.70;62.80;;;;;;4303917;33;20013;-69
2021/05/08 02:17:26;;;;;;;;;;;9.70;62.80;;;;;;4304442;33;20439;-69
2021/05/08 02:19:52;;;;;;;;;;;9.70;62.70;;;;;;4304240;33;20017;-69
2021/05/08 02:22:19;;;;;;;;;;;9.70;62.50;;;;;;4303182;33;20024;-69
2021/05/08 02:24:46;;;;;;;;;;;9.70;62.80;;;;;;4304203;33;20020;-69
2021/05/08 02:27:13;;;;;;;;;;;9.60;62.90;;;;;;4304391;33;20024;-69
2021/05/08 02:29:40;;;;;;;;;;;9.60;62.90;;;;;;4304463;33;20010;-69
2021/05/08 02:32:07;;;;;;;;;;;9.60;63.00;;;;;;4303038;33;20025;-69
2021/05/08 02:34:34;;;;;;;;;;;9.60;63.00;;;;;;4303788;33;20025;-69
2021/05/08 02:37:02;;;;;;;;;;;9.50;63.00;;;;;;4304105;33;20443;-69
2021/05/08 02:39:29;;;;;;;;;;;9.60;63.10;;;;;;4304075;33;20010;-69
2021/05/08 02:41:56;;;;;;;;;;;9.50;63.20;;;;;;4302845;33;20018;-69
2021/05/08 02:44:22;;;;;;;;;;;9.40;63.30;;;;;;4290795;33;20020;-69
2021/05/08 02:46:49;;;;;;;;;;;9.40;63.50;;;;;;4303752;33;20065;-69
2021/05/08 02:49:16;;;;;;;;;;;9.40;63.70;;;;;;4302668;33;20404;-69
2021/05/08 02:51:42;;;;;;;;;;;9.30;63.70;;;;;;4303977;33;20002;-69
2021/05/08 02:54:09;;;;;;;;;;;9.30;64.10;;;;;;4303747;33;20429;-69
2021/05/08 02:56:36;;;;;;;;;;;9.30;64.00;;;;;;4303710;33;20006;-69
2021/05/08 02:59:02;;;;;;;;;;;9.20;64.10;;;;;;4290458;33;20017;-69
2021/05/08 03:01:29;;;;;;;;;;;9.20;64.20;;;;;;4303275;33;20065;-68
2021/05/08 03:03:56;;;;;;;;;;;9.10;64.20;;;;;;4303773;33;20016;-69
2021/05/08 03:06:25;;;;;;;;;;;9.10;64.40;;;;;;4303923;33;20040;-69
2021/05/08 03:08:51;;;;;;;;;;;9.10;64.50;;;;;;4290338;33;19998;-69
2021/05/08 03:11:18;;;;;;;;;;;9.00;64.70;;;;;;4303431;33;20016;-69
2021/05/08 03:13:44;;;;;;;;;;;9.00;64.70;;;;;;4303386;33;20006;-69
2021/05/08 03:16:11;;;;;;;;;;;8.90;64.90;;;;;;4302662;33;20010;-69
2021/05/08 03:18:38;;;;;;;;;;;8.90;65.00;;;;;;4303251;33;20057;-69
2021/05/08 03:21:05;;;;;;;;;;;8.90;65.00;;;;;;4290629;33;20012;-69
2021/05/08 03:23:33;;;;;;;;;;;8.90;64.90;;;;;;4303541;33;20343;-69
2021/05/08 03:26:00;;;;;;;;;;;8.90;65.00;;;;;;4302974;33;20024;-69
2021/05/08 03:28:27;;;;;;;;;;;8.80;65.00;;;;;;4303038;33;20022;-69
2021/05/08 03:30:53;;;;;;;;;;;8.90;65.10;;;;;;4303100;33;20378;-69
2021/05/08 03:33:20;;;;;;;;;;;8.90;65.10;;;;;;4302078;33;20013;-69
2021/05/08 03:35:47;;;;;;;;;;;8.90;65.10;;;;;;4303150;33;20020;-69
2021/05/08 03:38:13;;;;;;;;;;;8.90;65.20;;;;;;4290154;33;19998;-69
2021/05/08 03:40:40;;;;;;;;;;;8.80;65.10;;;;;;4303249;33;20005;-69
2021/05/08 03:43:07;;;;;;;;;;;8.80;65.10;;;;;;4303319;33;20347;-69
2021/05/08 03:45:35;;;;;;;;;;;8.80;65.20;;;;;;4302145;33;20014;-68
2021/05/08 03:48:03;;;;;;;;;;;8.80;65.20;;;;;;4303088;33;20022;-69
2021/05/08 03:50:30;;;;;;;;;;;8.80;65.40;;;;;;4302739;33;20006;-69
2021/05/08 03:52:57;;;;;;;;;;;8.80;65.30;;;;;;4302111;33;20002;-69
2021/05/08 03:55:23;;;;;;;;;;;8.80;65.30;;;;;;4302650;33;20404;-69
2021/05/08 03:57:50;;;;;;;;;;;8.80;65.20;;;;;;4290070;33;20006;-69
2021/05/08 04:00:17;;;;;;;;;;;8.80;65.30;;;;;;4302955;33;20108;-68
2021/05/08 04:02:44;;;;;;;;;;;8.80;65.30;;;;;;4302562;33;20018;-68
2021/05/08 04:05:10;;;;;;;;;;;8.80;65.30;;;;;;4303038;33;20032;-69
2021/05/08 04:07:37;;;;;;;;;;;8.90;66.00;;;;;;4302740;33;20010;-68
2021/05/08 04:10:04;;;;;;;;;;;8.90;65.10;;;;;;4301195;33;20021;-69
2021/05/08 04:12:30;;;;;;;;;;;8.90;64.90;;;;;;4302930;33;20007;-69
2021/05/08 04:14:57;;;;;;;;;;;8.90;64.80;;;;;;4302865;33;20375;-68
2021/05/08 04:17:24;;;;;;;;;;;8.90;64.70;;;;;;4302863;33;20005;-68
2021/05/08 04:19:52;;;;;;;;;;;9.00;64.80;;;;;;4302789;33;19998;-68
2021/05/08 04:22:19;;;;;;;;;;;8.90;64.70;;;;;;4302448;33;20015;-69
2021/05/08 04:24:45;;;;;;;;;;;8.90;64.60;;;;;;4302325;33;20011;-69
2021/05/08 04:27:12;;;;;;;;;;;8.90;64.60;;;;;;4302318;33;20011;-68
2021/05/08 04:29:38;;;;;;;;;;;9.00;64.70;;;;;;4302635;33;20069;-68
2021/05/08 04:32:08;;;;;;;;;;;9.00;64.70;;;;;;4302449;33;20434;-68
2021/05/08 04:34:34;;;;;;;;;;;9.00;64.40;;;;;;4289134;33;20057;-69
2021/05/08 04:37:03;;;;;;;;;;;9.00;64.30;;;;;;4303012;33;20011;-68
2021/05/08 04:39:30;;;;;;;;;;;9.00;64.30;;;;;;4302520;33;20073;-68
2021/05/08 04:41:59;;;;;;;;;;;9.00;64.40;;;;;;4302551;33;20025;-68
2021/05/08 04:44:26;;;;;;;;;;;9.00;64.60;;;;;;4301421;33;20024;-68
2021/05/08 04:46:53;;;;;;;;;;;8.90;64.60;;;;;;4302551;33;20014;-68
2021/05/08 04:49:19;;;;;;;;;;;8.90;64.70;;;;;;4302598;33;20097;-68
2021/05/08 04:51:46;;;;;;;;;;;8.90;64.60;;;;;;4302859;33;20016;-68
2021/05/08 04:54:13;;;;;;;;;;;9.00;64.70;;;;;;4289129;33;20370;-68
2021/05/08 04:56:39;;;;;;;;;;;9.00;64.70;;;;;;4288972;33;20058;-68
2021/05/08 04:59:06;;;;;;;;;;;8.90;64.60;;;;;;4302570;33;20011;-68
2021/05/08 05:01:33;;;;;;;;;;;8.90;64.80;;;;;;4289129;33;20499;-69
2021/05/08 05:03:59;;;;;;;;;;;8.90;64.80;;;;;;4302352;33;20025;-69
2021/05/08 05:06:26;;;;;;;;;;;8.90;64.80;;;;;;4302450;33;20010;-68
2021/05/08 05:08:53;;;;;;;;;;;9.00;64.70;;;;;;4302362;33;20016;-68
2021/05/08 05:11:22;;;;;;;;;;;9.00;64.70;;;;;;4302127;33;20010;-68
2021/05/08 05:13:49;;;;;;;;;;;9.00;64.70;;;;;;4302375;33;20010;-68
2021/05/08 05:16:16;;;;;;;;;;;9.00;64.50;;;;;;4302384;33;20404;-68
2021/05/08 05:18:45;;;;;;;;;;;9.10;64.40;;;;;;4302184;33;20037;-68
2021/05/08 05:21:12;;;;;;;;;;;9.10;64.20;;;;;;4301973;33;20014;-69
2021/05/08 05:23:38;;;;;;;;;;;9.20;64.10;;;;;;4302679;33;20010;-68
2021/05/08 05:26:06;;;;;;;;;;;9.20;63.90;;;;;;4302365;33;20010;-68
2021/05/08 05:28:33;;;;;;;;;;;9.30;64.10;;;;;;4302397;33;20343;-68
2021/05/08 05:30:59;;;;;;;;;;;9.30;64.10;;;;;;4302037;33;20411;-68
2021/05/08 05:33:26;;;;;;;;;;;9.20;64.10;;;;;;4302253;33;20011;-68
2021/05/08 05:35:55;;;;;;;;;;;9.20;64.20;;;;;;4289164;33;20022;-68
2021/05/08 05:38:22;;;;;;;;;;;9.20;64.30;;;;;;4302867;33;20024;-68
2021/05/08 05:40:51;;;;;;;;;;;9.20;64.40;;;;;;4304811;33;19999;-68
2021/05/08 05:43:17;;;;;;;;;;;9.30;64.50;;;;;;4304643;33;20434;-68
2021/05/08 05:45:44;;;;;;;;;;;9.30;64.50;;;;;;4304976;33;20005;-68
2021/05/08 05:48:11;;;;;;;;;;;9.30;64.40;;;;;;4303727;33;20024;-68
2021/05/08 05:50:38;;;;;;;;;;;9.30;64.30;;;;;;4304372;33;20020;-68
2021/05/08 05:53:05;;;;;;;;;;;9.30;65.00;;;;;;4304538;33;20014;-68
2021/05/08 05:55:32;;;;;;;;;;;9.30;64.30;;;;;;4303585;33;20006;-68
2021/05/08 05:57:59;;;;;;;;;;;9.30;64.40;;;;;;4291813;33;20133;-68
2021/05/08 06:00:26;;;;;;;;;;;9.40;64.40;;;;;;4291688;33;20061;-68
2021/05/08 06:02:55;;;;;;;;;;;9.30;64.40;;;;;;4291743;33;20032;-68
2021/05/08 06:05:22;;;;;;;;;;;9.30;64.40;;;;;;4291436;33;20011;-68
2021/05/08 06:07:48;;;;;;;;;;;9.40;64.50;;;;;;4279324;33;19998;-68
2021/05/08 06:10:15;;;;;;;;;;;9.40;64.40;;;;;;4304541;33;20014;-68
2021/05/08 06:12:42;;;;;;;;;;;9.40;64.30;;;;;;4304397;33;20433;-68
2021/05/08 06:15:10;;;;;;;;;;;9.50;64.30;;;;;;4291042;33;20010;-68
2021/05/08 06:17:37;;;;;;;;;;;9.40;64.30;;;;;;4303865;33;20025;-68
2021/05/08 06:20:05;;;;;;;;;;;9.50;64.40;;;;;;4303900;33;20018;-68
2021/05/08 06:22:31;;;;;;;;;;;9.50;64.30;;;;;;4291094;33;20014;-68
2021/05/08 06:24:58;;;;;;;;;;;9.50;64.30;;;;;;4304170;33;20021;-68
2021/05/08 06:27:25;;;;;;;;;;;9.50;64.40;;;;;;4304447;33;20006;-69
2021/05/08 06:29:53;;;;;;;;;;;9.50;64.30;;;;;;4304357;33;20447;-68
2021/05/08 06:32:20;;;;;;;;;;;9.60;64.20;;;;;;4303657;33;20020;-68
2021/05/08 06:34:48;;;;;;;;;;;9.60;64.20;;;;;;4303974;33;20032;-68
2021/05/08 06:37:15;;;;;;;;;;;9.60;64.20;;;;;;4304066;33;20083;-68
2021/05/08 06:39:42;;;;;;;;;;;9.60;64.10;;;;;;4304118;33;20014;-68
2021/05/08 06:42:08;;;;;;;;;;;9.60;64.20;;;;;;4303550;33;20014;-68
2021/05/08 06:44:35;;;;;;;;;;;9.60;64.10;;;;;;4302734;33;20006;-68
2021/05/08 06:47:02;;;;;;;;;;;9.70;64.20;;;;;;4304114;33;20010;-68
2021/05/08 06:49:28;;;;;;;;;;;9.70;64.10;;;;;;4302416;33;20011;-68
2021/05/08 06:51:55;;;;;;;;;;;9.70;64.00;;;;;;4302895;33;20392;-68
2021/05/08 06:54:27;;;;;;;;;;;9.70;63.90;;;;;;4304140;33;20339;-68
2021/05/08 06:56:54;;;;;;;;;;;9.70;63.90;;;;;;4303619;33;20002;-68
2021/05/08 06:59:20;;;;;;;;;;;9.70;63.90;;;;;;4303586;33;20043;-68
2021/05/08 07:01:47;;;;;;;;;;;9.70;63.80;;;;;;4303308;33;20126;-68
2021/05/08 07:04:14;;;;;;;;;;;9.70;64.00;;;;;;4303987;33;20006;-68
2021/05/08 07:06:40;;;;;;;;;;;9.70;64.00;;;;;;4303615;33;20010;-68
2021/05/08 07:09:07;;;;;;;;;;;9.70;63.90;;;;;;4303647;33;20419;-68
2021/05/08 07:11:36;;;;;;;;;;;9.80;63.90;;;;;;4303145;33;20019;-68
2021/05/08 07:14:03;;;;;;;;;;;9.80;63.80;;;;;;4290353;33;20420;-68
2021/05/08 07:16:30;;;;;;;;;;;9.80;63.80;;;;;;4303053;33;20066;-68
2021/05/08 07:18:57;;;;;;;;;;;9.80;63.80;;;;;;4290239;33;20010;-68
2021/05/08 07:21:24;;;;;;;;;;;9.80;63.70;;;;;;4303187;33;20021;-68
2021/05/08 07:23:50;;;;;;;;;;;9.80;63.70;;;;;;4302572;33;20014;-68
2021/05/08 07:26:17;;;;;;;;;;;9.80;63.70;;;;;;4302837;33;20020;-68
2021/05/08 07:28:44;;;;;;;;;;;9.80;63.70;;;;;;4302879;33;20106;-68
2021/05/08 07:31:10;;;;;;;;;;;9.80;63.70;;;;;;4303236;33;20036;-68
2021/05/08 07:33:37;;;;;;;;;;;9.90;63.70;;;;;;4290065;33;20018;-68
2021/05/08 07:36:04;;;;;;;;;;;9.80;63.80;;;;;;4303361;33;20010;-68
2021/05/08 07:38:31;;;;;;;;;;;9.80;63.80;;;;;;4289734;33;20442;-68
2021/05/08 07:40:58;;;;;;;;;;;9.90;63.90;;;;;;4303026;33;20042;-68
2021/05/08 07:43:24;;;;;;;;;;;9.90;63.90;;;;;;4289906;33;20018;-68
2021/05/08 07:45:51;;;;;;;;;;;9.90;64.00;;;;;;4303150;33;20014;-68
2021/05/08 07:48:18;;;;;;;;;;;9.90;64.00;;;;;;4302997;33;20021;-68
2021/05/08 07:50:44;;;;;;;;;;;9.90;64.00;;;;;;4302951;33;20003;-68
2021/05/08 07:53:11;;;;;;;;;;;9.90;64.10;;;;;;4302802;33;20017;-68
2021/05/08 07:55:38;;;;;;;;;;;9.90;64.00;;;;;;4289474;33;20021;-68
2021/05/08 07:58:05;;;;;;;;;;;10.00;64.00;;;;;;4301590;33;20016;-68
2021/05/08 08:00:32;;;;;;;;;;;10.00;64.00;;;;;;4302325;33;20006;-68
2021/05/08 08:02:59;;;;;;;;;;;10.00;64.10;;;;;;4302602;33;20505;-68
2021/05/08 08:05:26;;;;;;;;;;;10.00;64.10;;;;;;4302489;33;20028;-68
2021/05/08 08:07:52;;;;;;;;;;;10.00;64.20;;;;;;4303072;33;20011;-68
2021/05/08 08:10:19;;;;;;;;;;;10.00;64.20;;;;;;4302777;33;20007;-68
2021/05/08 08:12:46;;;;;;;;;;;10.10;64.20;;;;;;4302048;33;20010;-68
2021/05/08 08:15:13;;;;;;;;;;;10.10;64.20;;;;;;4301427;33;20404;-68
2021/05/08 08:17:40;;;;;;;;;;;10.10;64.20;;;;;;4302699;33;20079;-68
2021/05/08 08:20:11;;;;;;;;;;;10.20;64.30;;;;;;4289694;33;20018;-68
2021/05/08 08:22:38;;;;;;;;;;;10.10;64.20;;;;;;4303001;33;20020;-68
2021/05/08 08:25:06;;;;;;;;;;;10.20;64.40;;;;;;4289011;33;20009;-68
2021/05/08 08:27:32;;;;;;;;;;;10.20;64.30;;;;;;4289694;33;20012;-68
2021/05/08 08:29:59;;;;;;;;;;;10.20;65.00;;;;;;4289425;33;19998;-68
2021/05/08 08:32:26;;;;;;;;;;;10.20;64.20;;;;;;4289419;33;20002;-68
2021/05/08 08:34:53;;;;;;;;;;;10.20;64.20;;;;;;4289467;33;19998;-68
2021/05/08 08:37:20;;;;;;;;;;;10.30;64.30;;;;;;4302625;33;20417;-68
2021/05/08 08:39:47;;;;;;;;;;;10.30;64.60;;;;;;4301634;33;20027;-68
2021/05/08 08:42:14;;;;;;;;;;;10.30;64.40;;;;;;4288992;33;20434;-68
2021/05/08 08:44:41;;;;;;;;;;;10.40;64.40;;;;;;4302725;33;20418;-68
2021/05/08 08:47:28;;;;;;;;;;;10.40;64.20;;;;;;4301386;33;20020;-68
2021/05/08 08:50:10;;;;;;;;;;;10.50;64.20;;;;;;4302875;33;20072;-68
2021/05/08 08:52:37;;;;;;;;;;;10.50;64.10;;;;;;4289791;33;19999;-68
2021/05/08 08:55:05;;;;;;;;;;;10.50;64.10;;;;;;4289310;33;20384;-68
2021/05/08 08:57:36;;;;;;;;;;;10.50;64.20;;;;;;4302340;33;20020;-68
2021/05/08 09:00:04;;;;;;;;;;;10.60;64.30;;;;;;4302296;33;20418;-68
2021/05/08 09:02:31;;;;;;;;;;;10.60;64.20;;;;;;4301834;33;20021;-68
2021/05/08 09:04:59;;;;;;;;;;;10.60;64.10;;;;;;4302542;33;20024;-68
2021/05/08 09:07:27;;;;;;;;;;;10.70;64.10;;;;;;4302569;33;20002;-68
2021/05/08 09:09:55;;;;;;;;;;;10.60;64.00;;;;;;4302098;33;20017;-68
2021/05/08 09:12:26;;;;;;;;;;;10.70;64.10;;;;;;4302357;33;20014;-68
2021/05/08 09:14:55;;;;;;;;;;;10.70;64.00;;;;;;4292119;33;20429;-68
2021/05/08 09:17:25;;;;;;;;;;;10.70;64.10;;;;;;4305226;33;20438;-68
2021/05/08 09:19:56;;;;;;;;;;;10.70;64.20;;;;;;4305558;33;20012;-68
2021/05/08 09:22:33;;;;;;;;;;;10.80;64.20;;;;;;4291954;33;20002;-68
2021/05/08 09:25:00;;;;;;;;;;;10.80;64.00;;;;;;4305352;33;20062;-68
2021/05/08 09:27:37;;;;;;;;;;;10.90;64.40;;;;;;4305271;33;20028;-68
2021/05/08 09:30:14;;;;;;;;;;;11.00;64.40;;;;;;4304511;33;20040;-67
2021/05/08 09:32:42;;;;;;;;;;;11.00;64.60;;;;;;4304982;33;20483;-68
2021/05/08 09:35:14;;;;;;;;;;;11.00;65.10;;;;;;4304879;33;20006;-68
2021/05/08 09:37:41;;;;;;;;;;;11.10;64.70;;;;;;4304789;33;20019;-68
2021/05/08 09:40:15;;;;;;;;;;;11.10;65.20;;;;;;4303662;33;20024;-68
2021/05/08 09:42:51;;;;;;;;;;;11.10;65.00;;;;;;4303593;33;20047;-68
2021/05/08 09:45:18;;;;;;;;;;;11.20;64.90;;;;;;4304715;33;20313;-68
2021/05/08 09:47:45;;;;;;;;;;;11.20;64.60;;;;;;4279492;33;20348;-68
2021/05/08 09:50:12;;;;;;;;;;;11.20;64.40;;;;;;4304609;33;20020;-68
2021/05/08 09:52:42;;;;;;;;;;;11.20;64.60;;;;;;4304266;33;20026;-68
2021/05/08 09:55:09;;;;;;;;;;;11.30;64.50;;;;;;4304472;33;20018;-68
2021/05/08 09:57:36;;;;;;;;;;;11.30;64.60;;;;;;4304553;33;20007;-68
2021/05/08 10:00:04;;;;;;;;;;;11.30;64.40;;;;;;4304532;33;20039;-68
2021/05/08 10:02:32;;;;;;;;;;;11.30;64.40;;;;;;4302858;33;20074;-68
2021/05/08 10:05:10;;;;;;;;;;;11.20;64.30;;;;;;4304609;33;20017;-68
2021/05/08 10:07:36;;;;;;;;;;;11.30;64.50;;;;;;4291300;33;20024;-68
2021/05/08 10:10:03;;;;;;;;;;;11.30;65.20;;;;;;4304474;33;20006;-67
2021/05/08 10:12:30;;;;;;;;;;;11.30;64.40;;;;;;4303176;33;20082;-68
2021/05/08 10:14:58;;;;;;;;;;;11.40;64.40;;;;;;4304600;33;20010;-67
2021/05/08 10:17:28;;;;;;;;;;;11.30;64.20;;;;;;4304190;33;20040;-68
2021/05/08 10:20:02;;;;;;;;;;;11.30;64.30;;;;;;4303604;33;20015;-67
2021/05/08 10:22:33;;;;;;;;;;;11.30;64.40;;;;;;4304264;33;20437;-67
2021/05/08 10:25:03;;;;;;;;;;;11.40;64.80;;;;;;4303346;33;20018;-68
2021/05/08 10:27:30;;;;;;;;;;;11.40;64.80;;;;;;4303943;33;20010;-68
2021/05/08 10:29:57;;;;;;;;;;;11.50;65.40;;;;;;4304379;33;20006;-68
2021/05/08 10:32:24;;;;;;;;;;;11.60;64.80;;;;;;4302913;33;20006;-68
2021/05/08 10:34:51;;;;;;;;;;;11.70;65.00;;;;;;4279293;33;20534;-68
2021/05/08 10:37:18;;;;;;;;;;;11.70;64.80;;;;;;4303938;33;20024;-68
2021/05/08 10:39:48;;;;;;;;;;;11.80;65.20;;;;;;4304191;33;20016;-68
2021/05/08 10:42:33;;;;;;;;;;;11.90;65.70;;;;;;4304242;33;20467;-68
2021/05/08 10:45:00;;;;;;;;;;;11.90;65.00;;;;;;4304262;33;20020;-68
2021/05/08 10:47:46;;;;;;;;;;;11.90;65.10;;;;;;4303922;33;20375;-68
2021/05/08 10:50:22;;;;;;;;;;;12.00;65.90;;;;;;4290723;33;20009;-68
2021/05/08 10:53:01;;;;;;;;;;;12.10;65.50;;;;;;4303726;33;20021;-68
2021/05/08 10:55:28;;;;;;;;;;;12.00;66.10;;;;;;4303580;33;20384;-68
2021/05/08 10:58:13;;;;;;;;;;;12.00;66.30;;;;;;4303541;33;20014;-68
2021/05/08 11:00:43;;;;;;;;;;;12.10;65.90;;;;;;4303384;33;20010;-68
2021/05/08 11:03:13;;;;;;;;;;;12.10;66.30;;;;;;4303368;33;20466;-68
2021/05/08 11:05:53;;;;;;;;;;;12.10;66.80;;;;;;4303781;33;20052;-68
2021/05/08 11:08:26;;;;;;;;;;;12.10;67.20;;;;;;4302762;33;20014;-68
2021/05/08 11:10:53;;;;;;;;;;;12.10;66.40;;;;;;4303325;33;20016;-68
2021/05/08 11:13:24;;;;;;;;;;;12.10;67.00;;;;;;4290673;33;20524;-68
2021/05/08 11:15:54;;;;;;;;;;;12.20;68.20;;;;;;4290819;33;20077;-68
2021/05/08 11:18:31;;;;;;;;;;;12.20;67.50;;;;;;4290173;33;20024;-68
2021/05/08 11:20:58;;;;;;;;;;;12.30;67.30;;;;;;4303407;33;20006;-68
2021/05/08 11:23:25;;;;;;;;;;;12.30;67.40;;;;;;4303457;33;20376;-68
2021/05/08 11:25:51;;;;;;;;;;;12.40;67.40;;;;;;4303678;33;20058;-68
2021/05/08 11:28:18;;;;;;;;;;;12.40;67.70;;;;;;4303492;33;20016;-68
2021/05/08 11:30:51;;;;;;;;;;;12.50;68.00;;;;;;4303064;33;20107;-68
2021/05/08 11:33:27;;;;;;;;;;;12.50;67.80;;;;;;4303554;33;20002;-68
2021/05/08 11:36:00;;;;;;;;;;;12.50;68.50;;;;;;4303012;33;20007;-68
2021/05/08 11:38:27;;;;;;;;;;;12.50;68.60;;;;;;4303305;33;20024;-68
2021/05/08 11:40:55;;;;;;;;;;;12.50;69.40;;;;;;4303091;33;20021;-69
2021/05/08 11:43:23;;;;;;;;;;;12.50;69.00;;;;;;4302902;33;20016;-68
2021/05/08 11:45:53;;;;;;;;;;;12.50;69.00;;;;;;4302018;33;20010;-68
2021/05/08 11:48:19;;;;;;;;;;;12.50;69.10;;;;;;4302747;33;20003;-68
2021/05/08 11:50:52;;;;;;;;;;;12.60;69.60;;;;;;4303090;33;20010;-68
2021/05/08 11:53:22;;;;;;;;;;;12.60;69.70;;;;;;4303343;33;20419;-68
2021/05/08 11:55:49;;;;;;;;;;;12.70;69.60;;;;;;4302243;33;20006;-68
2021/05/08 11:58:25;;;;;;;;;;;12.70;69.30;;;;;;4302882;33;20408;-68
2021/05/08 12:00:52;;;;;;;;;;;12.70;68.90;;;;;;4303284;33;20016;-68
2021/05/08 12:03:19;;;;;;;;;;;12.70;69.20;;;;;;4302601;33;20048;-68
2021/05/08 12:05:47;;;;;;;;;;;12.70;69.20;;;;;;4289904;33;19999;-68
2021/05/08 12:08:21;;;;;;;;;;;12.80;69.60;;;;;;4303299;33;20040;-68
2021/05/08 12:10:49;;;;;;;;;;;12.70;69.80;;;;;;4289692;33;20022;-68
2021/05/08 12:13:18;;;;;;;;;;;12.80;70.00;;;;;;4289871;33;20429;-68
2021/05/08 12:15:55;;;;;;;;;;;12.80;69.70;;;;;;4302970;33;20016;-68
2021/05/08 12:18:24;;;;;;;;;;;12.80;69.20;;;;;;4290010;33;20002;-68
2021/05/08 12:20:56;;;;;;;;;;;12.80;69.40;;;;;;4302775;33;20073;-68
2021/05/08 12:23:26;;;;;;;;;;;12.80;69.50;;;;;;4302693;33;20018;-68
2021/05/08 12:26:04;;;;;;;;;;;12.80;69.60;;;;;;4302959;33;20028;-68
2021/05/08 12:28:32;;;;;;;;;;;12.80;69.50;;;;;;4302922;33;20152;-68
2021/05/08 12:30:59;;;;;;;;;;;12.80;70.10;;;;;;4302788;33;20016;-68
2021/05/08 12:33:30;;;;;;;;;;;12.80;70.00;;;;;;4302837;33;20003;-68
2021/05/08 12:36:11;;;;;;;;;;;12.80;70.10;;;;;;4302980;33;20011;-68
2021/05/08 12:38:41;;;;;;;;;;;12.80;70.50;;;;;;4301855;33;20024;-68
2021/05/08 12:41:27;;;;;;;;;;;12.90;71.00;;;;;;4301612;33;20014;-68
2021/05/08 12:44:15;;;;;;;;;;;12.90;70.60;;;;;;4302772;33;20014;-68
2021/05/08 12:46:55;;;;;;;;;;;12.90;71.60;;;;;;4302349;33;20021;-68
2021/05/08 12:49:24;;;;;;;;;;;13.00;71.50;;;;;;4304799;33;20053;-68
2021/05/08 12:51:56;;;;;;;;;;;13.00;71.00;;;;;;4305455;33;20075;-68
2021/05/08 12:54:32;;;;;;;;;;;13.10;71.30;;;;;;4292452;33;20018;-68
2021/05/08 12:57:10;;;;;;;;;;;13.10;71.70;;;;;;4305397;33;20010;-68
2021/05/08 12:59:39;;;;;;;;;;;13.10;72.40;;;;;;4305743;33;20014;-68
2021/05/08 13:02:11;;;;;;;;;;;13.20;72.30;;;;;;4291765;33;20364;-68
2021/05/08 13:04:41;;;;;;;;;;;13.30;72.50;;;;;;4305261;33;20424;-68
2021/05/08 13:07:30;;;;;;;;;;;13.30;72.80;;;;;;4305707;33;20020;-68
2021/05/08 13:10:17;;;;;;;;;;;13.40;72.70;;;;;;4305339;33;20010;-68
2021/05/08 13:12:57;;;;;;;;;;;13.50;73.70;;;;;;4305168;33;20020;-68
2021/05/08 13:15:27;;;;;;;;;;;13.60;73.10;;;;;;4304952;33;20009;-68
2021/05/08 13:17:56;;;;;;;;;;;13.60;73.40;;;;;;4304590;33;20021;-68
2021/05/08 13:20:27;;;;;;;;;;;13.70;73.60;;;;;;4305133;33;20007;-68
2021/05/08 13:22:57;;;;;;;;;;;13.70;73.00;;;;;;4305453;33;20006;-69
2021/05/08 13:25:28;;;;;;;;;;;13.80;73.20;;;;;;4304735;33;20040;-69
2021/05/08 13:27:57;;;;;;;;;;;13.90;74.00;;;;;;4305045;33;20014;-69
2021/05/08 13:30:27;;;;;;;;;;;14.00;74.40;;;;;;4305173;33;20045;-69
2021/05/08 13:32:54;;;;;;;;;;;14.10;73.70;;;;;;4303853;33;20014;-68
2021/05/08 13:35:24;;;;;;;;;;;14.20;73.50;;;;;;4305054;33;20133;-68
2021/05/08 13:37:56;;;;;;;;;;;14.30;73.50;;;;;;4305037;33;20070;-68
2021/05/08 13:40:32;;;;;;;;;;;14.30;73.10;;;;;;4305118;33;20016;-69
2021/05/08 13:43:04;;;;;;;;;;;14.40;73.20;;;;;;4291727;33;20399;-68
2021/05/08 13:45:36;;;;;;;;;;;14.50;72.90;;;;;;4305039;33;20116;-69
2021/05/08 13:48:08;;;;;;;;;;;14.50;73.00;;;;;;4305097;33;20006;-69
2021/05/08 13:50:38;;;;;;;;;;;14.60;73.10;;;;;;4305004;33;20066;-69
2021/05/08 13:53:13;;;;;;;;;;;14.70;73.10;;;;;;4304978;33;20022;-69
2021/05/08 13:55:44;;;;;;;;;;;14.70;73.20;;;;;;4305122;33;20025;-68
2021/05/08 13:58:21;;;;;;;;;;;14.80;72.80;;;;;;4305063;33;20046;-68
2021/05/08 14:00:53;;;;;;;;;;;14.80;73.10;;;;;;4304712;33;20445;-69
2021/05/08 14:03:24;;;;;;;;;;;14.90;72.70;;;;;;4304179;33;20015;-69
2021/05/08 14:05:54;;;;;;;;;;;14.90;72.70;;;;;;4303640;33;20057;-69
2021/05/08 14:08:24;;;;;;;;;;;14.90;72.70;;;;;;4291165;33;20070;-69
2021/05/08 14:10:53;;;;;;;;;;;15.00;72.60;;;;;;4304569;33;20048;-69
2021/05/08 14:13:25;;;;;;;;;;;15.00;72.80;;;;;;4304713;33;20549;-69
2021/05/08 14:15:54;;;;;;;;;;;15.00;73.00;;;;;;4304431;33;20076;-69
2021/05/08 14:18:20;;;;;;;;;;;15.10;73.10;;;;;;4304444;33;20082;-69
2021/05/08 14:20:49;;;;;;;;;;;15.20;72.90;;;;;;4304282;33;20359;-69
2021/05/08 14:23:16;;;;;;;;;;;15.20;72.70;;;;;;4304332;33;20011;-69
2021/05/08 14:25:43;;;;;;;;;;;15.30;72.60;;;;;;4304411;33;20007;-69
2021/05/08 14:28:09;;;;;;;;;;;15.40;73.40;;;;;;4303265;33;20051;-69
2021/05/08 14:30:39;;;;;;;;;;;15.50;72.70;;;;;;4291059;33;20061;-69
2021/05/08 14:33:05;;;;;;;;;;;15.50;73.00;;;;;;4304012;33;20348;-69